sensor_id;sensor_type;location;lat;lon;timestamp;pressure;altitude;pressure_sealevel;temperature;humidity
12763;BME280;6445;52.490;13.378;2022-07-06T00:01:53;52015.97;;;-146.10;41.88
12763;BME280;6445;52.490;13.378;2022-07-06T00:04:18;52015.97;;;-146.10;42.12
12763;BME280;6445;52.490;13.378;2022-07-06T00:06:44;52013.97;;;-146.10;42.27
12763;BME280;6445;52.490;13.378;2022-07-06T00:09:09;52023.97;;;-146.10;42.38
12763;BME280;6445;52.490;13.378;2022-07-06T00:11:34;52017.97;;;-146.10;42.46
12763;BME280;6445;52.490;13.378;2022-07-06T00:14:00;52005.97;;;-146.10;42.50
12763;BME280;6445;52.490;13.378;2022-07-06T00:16:25;52027.97;;;-146.10;42.37
12763;BME280;6445;52.490;13.378;2022-07-06T00:18:51;52041.97;;;-146.10;42.42
12763;BME280;6445;52.490;13.378;2022-07-06T00:21:16;52021.97;;;-146.10;42.58
12763;BME280;6445;52.490;13.378;2022-07-06T00:23:42;52013.97;;;-146.10;42.79
12763;BME280;6445;52.490;13.378;2022-07-06T00:26:07;52051.97;;;-146.10;42.80
12763;BME280;6445;52.490;13.378;2022-07-06T00:28:33;52039.97;;;-146.10;42.88
12763;BME280;6445;52.490;13.378;2022-07-06T00:30:58;52009.97;;;-146.10;42.81
12763;BME280;6445;52.490;13.378;2022-07-06T00:33:23;52009.97;;;-146.10;42.98
12763;BME280;6445;52.490;13.378;2022-07-06T00:35:49;52015.97;;;-146.10;43.09
12763;BME280;6445;52.490;13.378;2022-07-06T00:38:14;52023.97;;;-146.10;43.41
12763;BME280;6445;52.490;13.378;2022-07-06T00:40:39;52031.97;;;-146.10;43.26
12763;BME280;6445;52.490;13.378;2022-07-06T00:43:05;52033.97;;;-146.10;43.26
12763;BME280;6445;52.490;13.378;2022-07-06T00:45:30;52011.97;;;-146.10;43.64
12763;BME280;6445;52.490;13.378;2022-07-06T00:47:56;52015.97;;;-146.10;43.36
12763;BME280;6445;52.490;13.378;2022-07-06T00:50:21;52011.97;;;-146.10;43.51
12763;BME280;6445;52.490;13.378;2022-07-06T00:52:55;52031.97;;;-146.10;43.26
12763;BME280;6445;52.490;13.378;2022-07-06T00:55:25;52033.97;;;-146.10;43.32
12763;BME280;6445;52.490;13.378;2022-07-06T00:57:51;52023.97;;;-146.10;43.27
12763;BME280;6445;52.490;13.378;2022-07-06T01:00:19;52053.97;;;-146.10;43.34
12763;BME280;6445;52.490;13.378;2022-07-06T01:02:45;52009.97;;;-146.10;43.17
12763;BME280;6445;52.490;13.378;2022-07-06T01:05:12;52031.97;;;-146.10;43.32
12763;BME280;6445;52.490;13.378;2022-07-06T01:07:40;52045.97;;;-146.10;43.66
12763;BME280;6445;52.490;13.378;2022-07-06T01:10:07;52027.97;;;-146.10;44.11
12763;BME280;6445;52.490;13.378;2022-07-06T01:12:34;52037.97;;;-146.10;43.80
12763;BME280;6445;52.490;13.378;2022-07-06T01:15:03;52001.97;;;-146.10;44.00
12763;BME280;6445;52.490;13.378;2022-07-06T01:17:29;52017.97;;;-146.10;43.91
12763;BME280;6445;52.490;13.378;2022-07-06T01:19:55;52033.97;;;-146.10;43.93
12763;BME280;6445;52.490;13.378;2022-07-06T01:22:20;52021.97;;;-146.10;43.77
12763;BME280;6445;52.490;13.378;2022-07-06T01:24:46;52045.97;;;-146.10;43.89
12763;BME280;6445;52.490;13.378;2022-07-06T01:27:11;52031.97;;;-146.10;43.90
12763;BME280;6445;52.490;13.378;2022-07-06T01:29:36;51989.97;;;-146.10;44.11
12763;BME280;6445;52.490;13.378;2022-07-06T01:32:02;52005.97;;;-146.10;44.26
12763;BME280;6445;52.490;13.378;2022-07-06T01:34:27;52031.97;;;-146.10;44.00
12763;BME280;6445;52.490;13.378;2022-07-06T01:36:53;52021.97;;;-146.10;43.84
12763;BME280;6445;52.490;13.378;2022-07-06T01:39:19;52011.97;;;-146.10;44.38
12763;BME280;6445;52.490;13.378;2022-07-06T01:41:45;52011.97;;;-146.10;44.02
12763;BME280;6445;52.490;13.378;2022-07-06T01:44:10;52029.97;;;-146.10;43.81
12763;BME280;6445;52.490;13.378;2022-07-06T01:46:35;52013.97;;;-146.10;44.01
12763;BME280;6445;52.490;13.378;2022-07-06T01:49:01;52031.97;;;-146.10;44.21
12763;BME280;6445;52.490;13.378;2022-07-06T01:51:26;52017.97;;;-146.10;44.25
12763;BME280;6445;52.490;13.378;2022-07-06T01:53:51;52015.97;;;-146.10;44.34
12763;BME280;6445;52.490;13.378;2022-07-06T01:56:17;52009.97;;;-146.10;44.01
12763;BME280;6445;52.490;13.378;2022-07-06T01:58:44;52019.97;;;-146.10;44.02
12763;BME280;6445;52.490;13.378;2022-07-06T02:01:14;52023.97;;;-146.10;43.91
12763;BME280;6445;52.490;13.378;2022-07-06T02:03:40;52021.97;;;-146.10;43.71
12763;BME280;6445;52.490;13.378;2022-07-06T02:06:06;52053.97;;;-146.10;43.53
12763;BME280;6445;52.490;13.378;2022-07-06T02:08:32;52037.97;;;-146.10;43.21
12763;BME280;6445;52.490;13.378;2022-07-06T02:10:57;52055.97;;;-146.10;43.27
12763;BME280;6445;52.490;13.378;2022-07-06T02:13:23;52023.97;;;-146.10;43.21
12763;BME280;6445;52.490;13.378;2022-07-06T02:15:48;52025.97;;;-146.10;43.37
12763;BME280;6445;52.490;13.378;2022-07-06T02:18:14;52031.97;;;-146.10;44.07
12763;BME280;6445;52.490;13.378;2022-07-06T02:20:39;52021.97;;;-146.10;45.40
12763;BME280;6445;52.490;13.378;2022-07-06T02:23:04;52033.97;;;-146.10;46.53
12763;BME280;6445;52.490;13.378;2022-07-06T02:25:29;52029.97;;;-146.10;48.40
12763;BME280;6445;52.490;13.378;2022-07-06T02:27:55;52011.97;;;-146.10;47.02
12763;BME280;6445;52.490;13.378;2022-07-06T02:30:20;52039.97;;;-146.10;46.88
12763;BME280;6445;52.490;13.378;2022-07-06T02:32:45;52015.97;;;-146.10;48.27
12763;BME280;6445;52.490;13.378;2022-07-06T02:35:11;51997.97;;;-146.10;47.99
12763;BME280;6445;52.490;13.378;2022-07-06T02:37:36;51987.97;;;-146.10;48.21
12763;BME280;6445;52.490;13.378;2022-07-06T02:40:02;51987.97;;;-146.10;49.29
12763;BME280;6445;52.490;13.378;2022-07-06T02:42:27;51981.97;;;-146.10;49.59
12763;BME280;6445;52.490;13.378;2022-07-06T02:44:53;52007.97;;;-146.10;48.52
12763;BME280;6445;52.490;13.378;2022-07-06T02:47:18;51969.97;;;-146.10;48.73
12763;BME280;6445;52.490;13.378;2022-07-06T02:49:44;51987.97;;;-146.10;48.75
12763;BME280;6445;52.490;13.378;2022-07-06T02:52:09;51987.97;;;-146.10;49.27
12763;BME280;6445;52.490;13.378;2022-07-06T02:54:34;52003.97;;;-146.10;48.68
12763;BME280;6445;52.490;13.378;2022-07-06T02:56:59;52007.97;;;-146.10;49.33
12763;BME280;6445;52.490;13.378;2022-07-06T02:59:25;52017.97;;;-146.10;50.09
12763;BME280;6445;52.490;13.378;2022-07-06T03:01:50;51989.97;;;-146.10;49.84
12763;BME280;6445;52.490;13.378;2022-07-06T03:04:15;52015.97;;;-146.10;49.80
12763;BME280;6445;52.490;13.378;2022-07-06T03:06:40;51979.97;;;-146.10;49.67
12763;BME280;6445;52.490;13.378;2022-07-06T03:09:06;52001.97;;;-146.10;49.74
12763;BME280;6445;52.490;13.378;2022-07-06T03:11:31;52001.97;;;-146.10;49.67
12763;BME280;6445;52.490;13.378;2022-07-06T03:14:00;51991.97;;;-146.10;49.39
12763;BME280;6445;52.490;13.378;2022-07-06T03:16:27;52009.97;;;-146.10;49.12
12763;BME280;6445;52.490;13.378;2022-07-06T03:18:53;52003.97;;;-146.10;49.05
12763;BME280;6445;52.490;13.378;2022-07-06T03:21:18;52015.97;;;-146.10;49.17
12763;BME280;6445;52.490;13.378;2022-07-06T03:23:43;51977.97;;;-146.10;49.01
12763;BME280;6445;52.490;13.378;2022-07-06T03:26:08;52027.97;;;-146.10;49.39
12763;BME280;6445;52.490;13.378;2022-07-06T03:28:34;51979.97;;;-146.10;50.09
12763;BME280;6445;52.490;13.378;2022-07-06T03:30:59;51983.97;;;-146.10;50.18
12763;BME280;6445;52.490;13.378;2022-07-06T03:33:24;51985.97;;;-146.10;49.68
12763;BME280;6445;52.490;13.378;2022-07-06T03:35:49;52001.97;;;-146.10;49.36
12763;BME280;6445;52.490;13.378;2022-07-06T03:38:15;52005.97;;;-146.10;49.61
12763;BME280;6445;52.490;13.378;2022-07-06T03:40:40;51983.97;;;-146.10;49.23
12763;BME280;6445;52.490;13.378;2022-07-06T03:43:05;51989.97;;;-146.10;49.59
12763;BME280;6445;52.490;13.378;2022-07-06T03:45:30;51991.97;;;-146.10;49.82
12763;BME280;6445;52.490;13.378;2022-07-06T03:47:56;51985.97;;;-146.10;49.22
12763;BME280;6445;52.490;13.378;2022-07-06T03:50:21;51981.97;;;-146.10;49.29
12763;BME280;6445;52.490;13.378;2022-07-06T03:52:46;52009.97;;;-146.10;49.46
12763;BME280;6445;52.490;13.378;2022-07-06T03:55:12;52029.97;;;-146.10;48.98
12763;BME280;6445;52.490;13.378;2022-07-06T03:57:38;52005.97;;;-146.10;48.76
12763;BME280;6445;52.490;13.378;2022-07-06T04:00:04;52025.97;;;-146.10;48.92
12763;BME280;6445;52.490;13.378;2022-07-06T04:02:30;52011.97;;;-146.10;48.60
12763;BME280;6445;52.490;13.378;2022-07-06T04:04:55;52009.97;;;-146.10;48.96
12763;BME280;6445;52.490;13.378;2022-07-06T04:07:20;52029.97;;;-146.10;48.24
12763;BME280;6445;52.490;13.378;2022-07-06T04:09:46;52003.97;;;-146.10;48.31
12763;BME280;6445;52.490;13.378;2022-07-06T04:12:11;52043.97;;;-146.10;48.05
12763;BME280;6445;52.490;13.378;2022-07-06T04:14:36;52021.97;;;-146.10;47.76
12763;BME280;6445;52.490;13.378;2022-07-06T04:17:02;52019.97;;;-146.10;47.59
12763;BME280;6445;52.490;13.378;2022-07-06T04:19:47;52021.97;;;-146.10;47.71
12763;BME280;6445;52.490;13.378;2022-07-06T04:22:13;51997.97;;;-146.10;47.46
12763;BME280;6445;52.490;13.378;2022-07-06T04:24:38;52019.97;;;-146.10;47.21
12763;BME280;6445;52.490;13.378;2022-07-06T04:27:03;52039.97;;;-146.10;46.94
12763;BME280;6445;52.490;13.378;2022-07-06T04:29:28;52025.97;;;-146.10;47.13
12763;BME280;6445;52.490;13.378;2022-07-06T04:31:54;52013.97;;;-146.10;47.33
12763;BME280;6445;52.490;13.378;2022-07-06T04:34:19;51985.97;;;-146.10;47.67
12763;BME280;6445;52.490;13.378;2022-07-06T04:36:44;52005.97;;;-146.10;47.76
12763;BME280;6445;52.490;13.378;2022-07-06T04:39:09;51991.97;;;-146.10;48.43
12763;BME280;6445;52.490;13.378;2022-07-06T04:41:35;52001.97;;;-146.10;48.20
12763;BME280;6445;52.490;13.378;2022-07-06T04:44:00;52009.97;;;-146.10;47.62
12763;BME280;6445;52.490;13.378;2022-07-06T04:46:25;52025.97;;;-146.10;47.28
12763;BME280;6445;52.490;13.378;2022-07-06T04:48:50;52019.97;;;-146.10;47.10
12763;BME280;6445;52.490;13.378;2022-07-06T04:51:16;52017.97;;;-146.10;46.58
12763;BME280;6445;52.490;13.378;2022-07-06T04:53:41;52025.97;;;-146.10;46.11
12763;BME280;6445;52.490;13.378;2022-07-06T04:56:06;52001.97;;;-146.10;46.63
12763;BME280;6445;52.490;13.378;2022-07-06T04:58:32;52011.97;;;-146.10;46.34
12763;BME280;6445;52.490;13.378;2022-07-06T05:00:57;52023.97;;;-146.10;46.87
12763;BME280;6445;52.490;13.378;2022-07-06T05:03:22;52015.97;;;-146.10;47.16
12763;BME280;6445;52.490;13.378;2022-07-06T05:05:47;52025.97;;;-146.10;47.05
12763;BME280;6445;52.490;13.378;2022-07-06T05:08:13;52013.97;;;-146.10;46.81
12763;BME280;6445;52.490;13.378;2022-07-06T05:10:38;52029.97;;;-146.10;46.24
12763;BME280;6445;52.490;13.378;2022-07-06T05:13:03;52059.97;;;-146.10;45.91
12763;BME280;6445;52.490;13.378;2022-07-06T05:15:28;52043.97;;;-146.10;45.43
12763;BME280;6445;52.490;13.378;2022-07-06T05:17:55;52076.00;;;-146.10;44.84
12763;BME280;6445;52.490;13.378;2022-07-06T05:20:20;52055.97;;;-146.10;45.02
12763;BME280;6445;52.490;13.378;2022-07-06T05:22:45;52076.00;;;-146.10;44.48
12763;BME280;6445;52.490;13.378;2022-07-06T05:25:10;52037.97;;;-146.10;44.73
12763;BME280;6445;52.490;13.378;2022-07-06T05:27:36;52063.97;;;-146.10;44.53
12763;BME280;6445;52.490;13.378;2022-07-06T05:30:01;52057.97;;;-146.10;44.34
12763;BME280;6445;52.490;13.378;2022-07-06T05:32:26;52070.00;;;-146.10;44.46
12763;BME280;6445;52.490;13.378;2022-07-06T05:34:52;52059.97;;;-146.10;44.19
12763;BME280;6445;52.490;13.378;2022-07-06T05:37:17;52019.97;;;-146.10;43.68
12763;BME280;6445;52.490;13.378;2022-07-06T05:39:42;52057.97;;;-146.10;43.30
12763;BME280;6445;52.490;13.378;2022-07-06T05:42:10;52106.00;;;-146.10;43.09
12763;BME280;6445;52.490;13.378;2022-07-06T05:44:35;52090.00;;;-146.10;42.53
12763;BME280;6445;52.490;13.378;2022-07-06T05:47:00;52114.00;;;-146.10;42.52
12763;BME280;6445;52.490;13.378;2022-07-06T05:49:44;52090.00;;;-146.10;42.96
12763;BME280;6445;52.490;13.378;2022-07-06T05:52:28;52132.00;;;-146.10;41.32
12763;BME280;6445;52.490;13.378;2022-07-06T05:54:54;52190.03;;;-146.10;38.74
12763;BME280;6445;52.490;13.378;2022-07-06T05:57:19;52272.03;;;-146.10;36.24
12763;BME280;6445;52.490;13.378;2022-07-06T05:59:44;52298.06;;;-146.10;34.84
12763;BME280;6445;52.490;13.378;2022-07-06T06:02:10;52386.09;;;-146.10;34.02
12763;BME280;6445;52.490;13.378;2022-07-06T06:04:35;52438.09;;;-146.10;32.86
12763;BME280;6445;52.490;13.378;2022-07-06T06:07:00;52450.09;;;-146.10;32.80
12763;BME280;6445;52.490;13.378;2022-07-06T06:09:25;52404.09;;;-146.10;32.91
12763;BME280;6445;52.490;13.378;2022-07-06T06:11:50;52442.09;;;-146.10;32.30
12763;BME280;6445;52.490;13.378;2022-07-06T06:14:16;52408.09;;;-146.10;33.02
12763;BME280;6445;52.490;13.378;2022-07-06T06:16:41;52430.09;;;-146.10;33.23
12763;BME280;6445;52.490;13.378;2022-07-06T06:19:06;52492.13;;;-146.10;31.89
12763;BME280;6445;52.490;13.378;2022-07-06T06:21:32;52472.13;;;-146.10;32.09
12763;BME280;6445;52.490;13.378;2022-07-06T06:23:57;52446.09;;;-146.10;32.94
12763;BME280;6445;52.490;13.378;2022-07-06T06:26:22;52480.13;;;-146.10;31.83
12763;BME280;6445;52.490;13.378;2022-07-06T06:28:48;52412.09;;;-146.10;32.96
12763;BME280;6445;52.490;13.378;2022-07-06T06:31:13;52534.13;;;-146.10;31.63
12763;BME280;6445;52.490;13.378;2022-07-06T06:33:38;52542.13;;;-146.10;30.70
12763;BME280;6445;52.490;13.378;2022-07-06T06:36:04;52524.13;;;-146.10;31.69
12763;BME280;6445;52.490;13.378;2022-07-06T06:38:29;52550.16;;;-146.10;30.60
12763;BME280;6445;52.490;13.378;2022-07-06T06:40:55;52592.16;;;-146.10;29.97
12763;BME280;6445;52.490;13.378;2022-07-06T06:43:20;52524.13;;;-146.10;30.95
12763;BME280;6445;52.490;13.378;2022-07-06T06:45:45;52536.13;;;-146.10;30.47
12763;BME280;6445;52.490;13.378;2022-07-06T06:48:11;52594.16;;;-146.10;30.30
12763;BME280;6445;52.490;13.378;2022-07-06T06:50:36;52594.16;;;-146.10;29.92
12763;BME280;6445;52.490;13.378;2022-07-06T06:53:02;52648.19;;;-146.10;29.48
12763;BME280;6445;52.490;13.378;2022-07-06T06:55:27;52604.16;;;-146.10;30.22
12763;BME280;6445;52.490;13.378;2022-07-06T06:57:53;52702.19;;;-146.10;29.30
12763;BME280;6445;52.490;13.378;2022-07-06T07:00:18;52510.13;;;-146.10;31.04
12763;BME280;6445;52.490;13.378;2022-07-06T07:02:45;52410.09;;;-146.10;32.83
12763;BME280;6445;52.490;13.378;2022-07-06T07:05:10;52354.06;;;-146.10;33.45
12763;BME280;6445;52.490;13.378;2022-07-06T07:07:35;52444.09;;;-146.10;32.49
12763;BME280;6445;52.490;13.378;2022-07-06T07:10:02;52496.13;;;-146.10;31.27
12763;BME280;6445;52.490;13.378;2022-07-06T07:12:28;52588.16;;;-146.10;30.22
12763;BME280;6445;52.490;13.378;2022-07-06T07:14:53;52662.19;;;-146.10;28.73
12763;BME280;6445;52.490;13.378;2022-07-06T07:17:18;52594.16;;;-146.10;30.08
12763;BME280;6445;52.490;13.378;2022-07-06T07:19:44;52732.22;;;-146.10;28.64
12763;BME280;6445;52.490;13.378;2022-07-06T07:22:09;52738.22;;;-146.10;27.80
12763;BME280;6445;52.490;13.378;2022-07-06T07:24:34;52592.16;;;-146.10;29.55
12763;BME280;6445;52.490;13.378;2022-07-06T07:26:59;52504.13;;;-146.10;30.78
12763;BME280;6445;52.490;13.378;2022-07-06T07:29:25;52458.09;;;-146.10;31.34
12763;BME280;6445;52.490;13.378;2022-07-06T07:31:50;52572.16;;;-146.10;29.59
12763;BME280;6445;52.490;13.378;2022-07-06T07:34:15;52348.06;;;-146.10;31.80
12763;BME280;6445;52.490;13.378;2022-07-06T07:36:41;52278.03;;;-146.10;33.64
12763;BME280;6445;52.490;13.378;2022-07-06T07:39:06;52226.03;;;-146.10;34.65
12763;BME280;6445;52.490;13.378;2022-07-06T07:41:31;52226.03;;;-146.10;34.65
12763;BME280;6445;52.490;13.378;2022-07-06T07:43:57;52488.13;;;-146.10;30.14
12763;BME280;6445;52.490;13.378;2022-07-06T07:46:22;52676.19;;;-146.10;27.52
12763;BME280;6445;52.490;13.378;2022-07-06T07:48:47;52742.22;;;-146.10;26.79
12763;BME280;6445;52.490;13.378;2022-07-06T07:51:13;52514.13;;;-146.10;28.94
12763;BME280;6445;52.490;13.378;2022-07-06T07:53:38;52460.09;;;-146.10;30.22
12763;BME280;6445;52.490;13.378;2022-07-06T07:56:03;52290.06;;;-146.10;32.75
12763;BME280;6445;52.490;13.378;2022-07-06T07:58:29;52324.06;;;-146.10;32.47
12763;BME280;6445;52.490;13.378;2022-07-06T08:00:54;52240.03;;;-146.10;33.46
12763;BME280;6445;52.490;13.378;2022-07-06T08:03:19;52264.03;;;-146.10;33.49
12763;BME280;6445;52.490;13.378;2022-07-06T08:05:44;52280.03;;;-146.10;32.59
12763;BME280;6445;52.490;13.378;2022-07-06T08:08:12;52328.06;;;-146.10;31.77
12763;BME280;6445;52.490;13.378;2022-07-06T08:10:37;52462.09;;;-146.10;30.42
12763;BME280;6445;52.490;13.378;2022-07-06T08:13:02;52400.09;;;-146.10;29.71
12763;BME280;6445;52.490;13.378;2022-07-06T08:15:27;52504.13;;;-146.10;29.21
12763;BME280;6445;52.490;13.378;2022-07-06T08:17:53;52608.16;;;-146.10;28.04
12763;BME280;6445;52.490;13.378;2022-07-06T08:20:18;52708.22;;;-146.10;26.99
12763;BME280;6445;52.490;13.378;2022-07-06T08:22:43;52870.28;;;-146.10;26.09
12763;BME280;6445;52.490;13.378;2022-07-06T08:25:09;53034.34;;;-146.10;25.09
12763;BME280;6445;52.490;13.378;2022-07-06T08:27:34;52724.22;;;-146.10;26.53
12763;BME280;6445;52.490;13.378;2022-07-06T08:30:00;52606.16;;;-146.10;27.88
12763;BME280;6445;52.490;13.378;2022-07-06T08:32:25;52612.16;;;-146.10;27.24
12763;BME280;6445;52.490;13.378;2022-07-06T08:34:51;52470.13;;;-146.10;28.17
12763;BME280;6445;52.490;13.378;2022-07-06T08:37:16;52442.09;;;-146.10;28.82
12763;BME280;6445;52.490;13.378;2022-07-06T08:39:41;52414.09;;;-146.10;28.89
12763;BME280;6445;52.490;13.378;2022-07-06T08:42:07;52348.06;;;-146.10;30.20
12763;BME280;6445;52.490;13.378;2022-07-06T08:44:35;52266.03;;;-146.10;31.17
12763;BME280;6445;52.490;13.378;2022-07-06T08:47:04;52210.03;;;-146.10;32.64
12763;BME280;6445;52.490;13.378;2022-07-06T08:49:31;52244.03;;;-146.10;32.86
12763;BME280;6445;52.490;13.378;2022-07-06T08:51:57;52238.03;;;-146.10;32.98
12763;BME280;6445;52.490;13.378;2022-07-06T08:54:22;52292.06;;;-146.10;31.49
12763;BME280;6445;52.490;13.378;2022-07-06T08:56:48;52308.06;;;-146.10;30.93
12763;BME280;6445;52.490;13.378;2022-07-06T08:59:15;52228.03;;;-146.10;32.73
12763;BME280;6445;52.490;13.378;2022-07-06T09:01:40;52210.03;;;-146.10;33.24
12763;BME280;6445;52.490;13.378;2022-07-06T09:04:07;52192.03;;;-146.10;33.45
12763;BME280;6445;52.490;13.378;2022-07-06T09:06:33;52208.03;;;-146.10;33.82
12763;BME280;6445;52.490;13.378;2022-07-06T09:08:58;52204.03;;;-146.10;33.98
12763;BME280;6445;52.490;13.378;2022-07-06T09:11:25;52162.00;;;-146.10;33.54
12763;BME280;6445;52.490;13.378;2022-07-06T09:13:51;52184.03;;;-146.10;33.48
12763;BME280;6445;52.490;13.378;2022-07-06T09:16:17;52168.00;;;-146.10;32.89
12763;BME280;6445;52.490;13.378;2022-07-06T09:18:46;52164.00;;;-146.10;32.91
12763;BME280;6445;52.490;13.378;2022-07-06T09:21:22;52162.00;;;-146.10;32.21
12763;BME280;6445;52.490;13.378;2022-07-06T09:23:53;52200.03;;;-146.10;31.93
12763;BME280;6445;52.490;13.378;2022-07-06T09:26:18;52268.03;;;-146.10;30.87
12763;BME280;6445;52.490;13.378;2022-07-06T09:28:45;52200.03;;;-146.10;30.66
12763;BME280;6445;52.490;13.378;2022-07-06T09:31:10;52186.03;;;-146.10;31.00
12763;BME280;6445;52.490;13.378;2022-07-06T09:33:36;52202.03;;;-146.10;30.73
12763;BME280;6445;52.490;13.378;2022-07-06T09:36:02;52226.03;;;-146.10;30.38
12763;BME280;6445;52.490;13.378;2022-07-06T09:38:28;52180.00;;;-146.10;31.14
12763;BME280;6445;52.490;13.378;2022-07-06T09:40:54;52192.03;;;-146.10;31.18
12763;BME280;6445;52.490;13.378;2022-07-06T09:43:21;52168.00;;;-146.10;30.98
12763;BME280;6445;52.490;13.378;2022-07-06T09:45:56;52170.00;;;-146.10;30.71
12763;BME280;6445;52.490;13.378;2022-07-06T09:48:24;52156.00;;;-146.10;31.22
12763;BME280;6445;52.490;13.378;2022-07-06T09:50:50;52158.00;;;-146.10;32.08
12763;BME280;6445;52.490;13.378;2022-07-06T09:53:17;52172.00;;;-146.10;31.28
12763;BME280;6445;52.490;13.378;2022-07-06T09:55:49;52144.00;;;-146.10;31.96
12763;BME280;6445;52.490;13.378;2022-07-06T09:58:16;52128.00;;;-146.10;32.22
12763;BME280;6445;52.490;13.378;2022-07-06T10:00:42;52158.00;;;-146.10;32.60
12763;BME280;6445;52.490;13.378;2022-07-06T10:03:08;52138.00;;;-146.10;32.25
12763;BME280;6445;52.490;13.378;2022-07-06T10:05:37;52136.00;;;-146.10;32.25
12763;BME280;6445;52.490;13.378;2022-07-06T10:08:03;52160.00;;;-146.10;32.10
12763;BME280;6445;52.490;13.378;2022-07-06T10:10:32;52146.00;;;-146.10;32.45
12763;BME280;6445;52.490;13.378;2022-07-06T10:12:58;52150.00;;;-146.10;32.81
12763;BME280;6445;52.490;13.378;2022-07-06T10:15:26;52184.03;;;-146.10;32.83
12763;BME280;6445;52.490;13.378;2022-07-06T10:17:51;52200.03;;;-146.10;32.34
12763;BME280;6445;52.490;13.378;2022-07-06T10:20:18;52172.00;;;-146.10;32.30
12763;BME280;6445;52.490;13.378;2022-07-06T10:22:46;52160.00;;;-146.10;32.94
12763;BME280;6445;52.490;13.378;2022-07-06T10:25:11;52136.00;;;-146.10;33.77
12763;BME280;6445;52.490;13.378;2022-07-06T10:27:37;52194.03;;;-146.10;33.30
12763;BME280;6445;52.490;13.378;2022-07-06T10:30:03;52198.03;;;-146.10;32.81
12763;BME280;6445;52.490;13.378;2022-07-06T10:32:28;52220.03;;;-146.10;32.58
12763;BME280;6445;52.490;13.378;2022-07-06T10:34:54;52216.03;;;-146.10;32.81
12763;BME280;6445;52.490;13.378;2022-07-06T10:37:26;52208.03;;;-146.10;32.52
12763;BME280;6445;52.490;13.378;2022-07-06T10:39:52;52174.00;;;-146.10;33.06
12763;BME280;6445;52.490;13.378;2022-07-06T10:50:45;52292.06;;;-146.10;31.73
12763;BME280;6445;52.490;13.378;2022-07-06T10:53:13;52304.06;;;-146.10;31.34
12763;BME280;6445;52.490;13.378;2022-07-06T10:55:41;52352.06;;;-146.10;29.96
12763;BME280;6445;52.490;13.378;2022-07-06T10:58:08;52380.09;;;-146.10;29.49
12763;BME280;6445;52.490;13.378;2022-07-06T11:00:53;52444.09;;;-146.10;27.74
12763;BME280;6445;52.490;13.378;2022-07-06T11:03:36;52506.13;;;-146.10;27.02
12763;BME280;6445;52.490;13.378;2022-07-06T11:06:28;52446.09;;;-146.10;27.29
12763;BME280;6445;52.490;13.378;2022-07-06T11:09:10;52504.13;;;-146.10;27.11
12763;BME280;6445;52.490;13.378;2022-07-06T11:16:32;52332.06;;;-146.10;29.22
12763;BME280;6445;52.490;13.378;2022-07-06T11:19:30;52270.03;;;-146.10;30.90
12763;BME280;6445;52.490;13.378;2022-07-06T11:21:57;52240.03;;;-146.10;31.49
12763;BME280;6445;52.490;13.378;2022-07-06T11:24:29;52268.03;;;-146.10;31.79
12763;BME280;6445;52.490;13.378;2022-07-06T11:26:56;52258.03;;;-146.10;31.66
12763;BME280;6445;52.490;13.378;2022-07-06T11:29:23;52260.03;;;-146.10;32.24
12763;BME280;6445;52.490;13.378;2022-07-06T11:31:51;52232.03;;;-146.10;32.21
12763;BME280;6445;52.490;13.378;2022-07-06T11:34:22;52234.03;;;-146.10;32.26
12763;BME280;6445;52.490;13.378;2022-07-06T11:36:49;52264.03;;;-146.10;31.55
12763;BME280;6445;52.490;13.378;2022-07-06T11:39:15;52290.06;;;-146.10;31.29
12763;BME280;6445;52.490;13.378;2022-07-06T11:41:41;52312.06;;;-146.10;30.44
12763;BME280;6445;52.490;13.378;2022-07-06T11:44:06;52278.03;;;-146.10;31.55
12763;BME280;6445;52.490;13.378;2022-07-06T11:46:35;52300.06;;;-146.10;30.73
12763;BME280;6445;52.490;13.378;2022-07-06T11:49:03;52296.06;;;-146.10;30.62
12763;BME280;6445;52.490;13.378;2022-07-06T11:51:34;52270.03;;;-146.10;30.25
12763;BME280;6445;52.490;13.378;2022-07-06T11:54:06;52322.06;;;-146.10;29.69
12763;BME280;6445;52.490;13.378;2022-07-06T11:56:32;52306.06;;;-146.10;29.59
12763;BME280;6445;52.490;13.378;2022-07-06T11:58:59;52428.09;;;-146.10;28.69
12763;BME280;6445;52.490;13.378;2022-07-06T12:01:26;52446.09;;;-146.10;28.27
12763;BME280;6445;52.490;13.378;2022-07-06T12:03:53;52314.06;;;-146.10;29.57
12763;BME280;6445;52.490;13.378;2022-07-06T12:06:20;52322.06;;;-146.10;29.77
12763;BME280;6445;52.490;13.378;2022-07-06T12:08:51;52284.03;;;-146.10;30.35
12763;BME280;6445;52.490;13.378;2022-07-06T12:11:25;52324.06;;;-146.10;30.23
12763;BME280;6445;52.490;13.378;2022-07-06T12:13:53;52276.03;;;-146.10;30.65
12763;BME280;6445;52.490;13.378;2022-07-06T12:16:20;52240.03;;;-146.10;31.18
12763;BME280;6445;52.490;13.378;2022-07-06T12:18:47;52280.03;;;-146.10;30.69
12763;BME280;6445;52.490;13.378;2022-07-06T12:21:18;52284.03;;;-146.10;30.50
12763;BME280;6445;52.490;13.378;2022-07-06T12:23:53;52292.06;;;-146.10;30.74
12763;BME280;6445;52.490;13.378;2022-07-06T12:26:21;52286.03;;;-146.10;31.21
12763;BME280;6445;52.490;13.378;2022-07-06T12:29:09;52306.06;;;-146.10;31.32
12763;BME280;6445;52.490;13.378;2022-07-06T12:31:37;52294.06;;;-146.10;31.17
12763;BME280;6445;52.490;13.378;2022-07-06T12:34:03;52322.06;;;-146.10;30.87
12763;BME280;6445;52.490;13.378;2022-07-06T12:36:29;52338.06;;;-146.10;30.33
12763;BME280;6445;52.490;13.378;2022-07-06T12:38:55;52384.09;;;-146.10;29.83
12763;BME280;6445;52.490;13.378;2022-07-06T12:41:33;52418.09;;;-146.10;29.34
12763;BME280;6445;52.490;13.378;2022-07-06T12:44:07;52448.09;;;-146.10;28.62
12763;BME280;6445;52.490;13.378;2022-07-06T12:46:37;52386.09;;;-146.10;29.06
12763;BME280;6445;52.490;13.378;2022-07-06T12:49:22;52358.06;;;-146.10;29.75
12763;BME280;6445;52.490;13.378;2022-07-06T12:54:33;52320.06;;;-146.10;30.52